Time;durP1;ratioP1;P1;durP2;ratioP2;P2;SDS_P1;SDS_P2;PMS_P1;PMS_P2;Temp;Humidity;BMP_temperature;BMP_pressure;BME280_temperature;BME280_humidity;BME280_pressure;Samples;Min_cycle;Max_cycle;Signal;HPM_P1;HPM_P2
2021/12/31 00:00:05;;;;;;;55.92;11.65;;;;;;;7.18;100.00;100070.28;4788769;29;20096;-78
2021/12/31 00:02:31;;;;;;;61.70;11.85;;;;;;;7.20;100.00;100071.75;4787767;29;20055;-78
2021/12/31 00:04:56;;;;;;;70.25;12.15;;;;;;;7.09;100.00;100056.25;4791230;29;20123;-78
2021/12/31 00:07:21;;;;;;;61.33;11.02;;;;;;;7.17;100.00;100065.97;4805971;29;20045;-78
2021/12/31 00:09:47;;;;;;;62.33;11.90;;;;;;;7.09;100.00;100061.59;4773700;29;20054;-78
2021/12/31 00:12:13;;;;;;;58.67;11.52;;;;;;;7.07;100.00;100068.97;4776144;29;20050;-78
2021/12/31 00:14:39;;;;;;;57.83;11.95;;;;;;;7.18;100.00;100086.34;4807806;29;20030;-78
2021/12/31 00:17:05;;;;;;;60.03;11.77;;;;;;;7.11;100.00;100088.13;4791978;29;20039;-79
2021/12/31 00:19:33;;;;;;;61.13;11.98;;;;;;;7.15;100.00;100090.25;4790861;29;20363;-78
2021/12/31 00:22:09;;;;;;;52.72;10.40;;;;;;;7.13;100.00;100086.09;4808809;29;20080;-79
2021/12/31 00:24:34;;;;;;;64.65;10.90;;;;;;;7.10;100.00;100081.16;4806137;29;20336;-78
2021/12/31 00:27:00;;;;;;;53.88;10.40;;;;;;;7.11;100.00;100093.50;4806527;29;20066;-78
2021/12/31 00:29:26;;;;;;;49.10;10.45;;;;;;;7.16;100.00;100104.44;4810460;29;20038;-78
2021/12/31 00:31:51;;;;;;;59.17;10.88;;;;;;;7.12;100.00;100116.53;4794544;29;20121;-78
2021/12/31 00:34:17;;;;;;;58.92;10.63;;;;;;;7.11;100.00;100106.88;4781225;29;20038;-79
2021/12/31 00:36:47;;;;;;;57.33;10.55;;;;;;;7.10;100.00;100111.41;4812100;29;20133;-78
2021/12/31 00:39:15;;;;;;;49.60;9.98;;;;;;;6.83;100.00;100067.56;4791240;29;20504;-78
2021/12/31 00:41:42;;;;;;;52.25;10.23;;;;;;;7.06;100.00;100099.44;4808909;29;20027;-78
2021/12/31 00:44:08;;;;;;;58.40;10.10;;;;;;;6.92;100.00;100094.97;4776243;29;20095;-78
2021/12/31 00:46:34;;;;;;;64.32;11.05;;;;;;;6.96;100.00;100096.25;4789359;29;20043;-78
2021/12/31 00:49:02;;;;;;;59.85;11.40;;;;;;;6.66;100.00;100063.50;4801945;29;20069;-79
2021/12/31 00:51:28;;;;;;;39.67;9.07;;;;;;;6.97;100.00;100103.25;4804517;29;20050;-78
2021/12/31 00:53:53;;;;;;;60.20;10.98;;;;;;;6.99;100.00;100102.06;4790807;29;20070;-78
2021/12/31 00:56:19;;;;;;;50.92;11.25;;;;;;;7.02;100.00;100096.31;4785972;30;20381;-78
2021/12/31 00:58:45;;;;;;;65.35;12.15;;;;;;;7.01;100.00;100102.66;4789331;30;20117;-78
2021/12/31 01:01:17;;;;;;;85.15;14.15;;;;;;;6.95;100.00;100097.25;4793859;29;20042;-78
2021/12/31 01:03:42;;;;;;;66.93;13.20;;;;;;;7.00;100.00;100103.69;4810329;29;20042;-79
2021/12/31 01:06:08;;;;;;;55.20;12.45;;;;;;;7.02;100.00;100108.88;4822293;29;20039;-79
2021/12/31 01:08:33;;;;;;;73.93;13.35;;;;;;;6.80;100.00;100081.31;4793984;29;20033;-78
2021/12/31 01:10:59;;;;;;;65.60;14.15;;;;;;;7.01;100.00;100096.50;4821367;29;20477;-79
2021/12/31 01:13:33;;;;;;;63.50;14.75;;;;;;;6.91;100.00;100098.69;4780050;29;20132;-78
2021/12/31 01:16:01;;;;;;;84.93;14.65;;;;;;;6.89;100.00;100095.34;4790731;29;20169;-78
2021/12/31 01:21:12;;;;;;;47.75;10.73;;;;;;;7.00;100.00;100100.19;4759073;29;20516;-79
2021/12/31 01:23:38;;;;;;;72.00;12.85;;;;;;;6.92;100.00;100090.47;4785748;29;20122;-79
2021/12/31 01:26:03;;;;;;;62.10;12.98;;;;;;;6.77;100.00;100066.47;4766157;29;20486;-78
2021/12/31 01:28:29;;;;;;;84.15;14.38;;;;;;;6.98;100.00;100087.00;4786520;29;20386;-79
2021/12/31 01:30:54;;;;;;;62.65;13.15;;;;;;;6.93;100.00;100094.78;4800073;29;20039;-79
2021/12/31 01:33:19;;;;;;;69.88;13.15;;;;;;;6.97;100.00;100088.03;4794270;29;20493;-79
2021/12/31 01:35:45;;;;;;;67.32;12.82;;;;;;;6.99;100.00;100096.69;4795320;29;20058;-78
2021/12/31 01:38:10;;;;;;;67.60;12.52;;;;;;;7.00;100.00;100097.53;4785279;29;20039;-78
2021/12/31 01:40:36;;;;;;;60.22;12.93;;;;;;;6.91;100.00;100079.97;4778583;29;20035;-79
2021/12/31 01:43:02;;;;;;;67.85;13.10;;;;;;;6.91;100.00;100099.50;4775338;29;20031;-79
2021/12/31 01:45:32;;;;;;;56.35;12.43;;;;;;;6.90;100.00;100089.84;4782697;29;20131;-78
2021/12/31 01:48:05;;;;;;;81.82;13.85;;;;;;;6.88;100.00;100096.38;4805860;29;20027;-78
2021/12/31 01:50:31;;;;;;;74.60;13.82;;;;;;;6.89;100.00;100098.88;4824324;29;20461;-79
2021/12/31 01:52:57;;;;;;;59.40;12.07;;;;;;;6.71;100.00;100083.28;4796843;29;20039;-78
2021/12/31 01:55:25;;;;;;;55.08;13.35;;;;;;;6.56;100.00;100053.13;4790507;29;20042;-78
2021/12/31 01:57:51;;;;;;;66.97;12.70;;;;;;;6.66;100.00;100063.50;4789868;29;20072;-78
2021/12/31 02:00:17;;;;;;;79.22;14.07;;;;;;;6.79;100.00;100088.50;4818698;29;20138;-78
2021/12/31 02:02:44;;;;;;;59.50;13.20;;;;;;;6.85;100.00;100086.06;4803897;29;20041;-79
2021/12/31 02:05:11;;;;;;;63.35;12.85;;;;;;;6.43;100.00;100032.44;4806646;29;20030;-79
2021/12/31 02:07:37;;;;;;;59.00;12.73;;;;;;;6.84;100.00;100101.28;4825296;29;20358;-79
2021/12/31 02:10:04;;;;;;;62.05;12.40;;;;;;;6.82;100.00;100097.97;4818248;29;20030;-79
2021/12/31 02:12:29;;;;;;;63.28;11.02;;;;;;;6.84;100.00;100098.63;4809273;29;20038;-79
2021/12/31 02:14:55;;;;;;;65.38;13.63;;;;;;;6.82;100.00;100092.63;4775471;29;20048;-79
2021/12/31 02:17:20;;;;;;;69.70;14.00;;;;;;;6.70;100.00;100059.41;4791421;29;20049;-79
2021/12/31 02:20:02;;;;;;;59.58;12.02;;;;;;;6.89;100.00;100100.69;4802483;29;20037;-79
2021/12/31 02:22:28;;;;;;;67.72;12.15;;;;;;;6.88;100.00;100096.38;4804892;29;20509;-78
2021/12/31 02:24:56;;;;;;;54.03;11.80;;;;;;;6.64;100.00;100061.00;4787492;29;20122;-78
2021/12/31 02:27:24;;;;;;;48.38;11.48;;;;;;;6.95;100.00;100105.28;4817486;29;20035;-79
2021/12/31 02:29:50;;;;;;;56.25;11.70;;;;;;;6.89;100.00;100080.16;4789985;29;20035;-78
2021/12/31 02:32:16;;;;;;;43.13;10.65;;;;;;;6.94;100.00;100088.41;4803397;29;20480;-78
2021/12/31 02:34:42;;;;;;;45.95;10.50;;;;;;;6.95;100.00;100091.91;4805066;29;20031;-79
2021/12/31 02:37:08;;;;;;;49.58;10.98;;;;;;;6.93;100.00;100092.13;4822852;29;20046;-79
2021/12/31 02:39:38;;;;;;;49.72;10.00;;;;;;;6.98;100.00;100084.31;4795866;29;20031;-79
2021/12/31 02:42:04;;;;;;;60.08;10.68;;;;;;;6.96;100.00;100089.06;4789986;29;20031;-78
2021/12/31 02:44:29;;;;;;;54.90;9.50;;;;;;;6.96;100.00;100089.06;4803352;29;20035;-78
2021/12/31 02:46:54;;;;;;;46.95;10.40;;;;;;;6.99;100.00;100096.69;4758754;30;20070;-78
2021/12/31 02:49:23;;;;;;;46.25;9.68;;;;;;;6.96;100.00;100086.38;4792177;30;20027;-78
2021/12/31 02:51:49;;;;;;;50.50;10.23;;;;;;;6.95;100.00;100097.25;4786892;29;20469;-79
2021/12/31 02:54:15;;;;;;;38.67;8.55;;;;;;;6.81;100.00;100083.78;4801705;29;20043;-79
2021/12/31 02:56:41;;;;;;;63.17;11.20;;;;;;;6.96;100.00;100089.06;4791253;29;20088;-79
2021/12/31 02:59:08;;;;;;;48.85;11.00;;;;;;;6.96;100.00;100093.59;4795973;29;20042;-78
2021/12/31 03:01:33;;;;;;;51.15;10.52;;;;;;;6.81;100.00;100081.09;4779149;29;20042;-79
2021/12/31 03:04:00;;;;;;;57.63;11.68;;;;;;;6.97;100.00;100101.41;4784305;29;20031;-78
2021/12/31 03:06:27;;;;;;;66.32;11.57;;;;;;;6.91;100.00;100094.16;4789282;30;20032;-79
2021/12/31 03:08:54;;;;;;;69.20;11.85;;;;;;;6.96;100.00;100107.78;4790218;30;20047;-79
2021/12/31 03:11:20;;;;;;;75.70;12.48;;;;;;;6.83;100.00;100081.75;4778185;29;20533;-79
2021/12/31 03:13:51;;;;;;;70.32;11.60;;;;;;;6.85;100.00;100084.22;4778569;29;20046;-79
2021/12/31 03:16:20;;;;;;;57.13;11.88;;;;;;;6.97;100.00;100089.88;4809888;29;20122;-79
2021/12/31 03:18:46;;;;;;;53.28;11.07;;;;;;;7.00;100.00;100092.19;4794128;29;20038;-79
2021/12/31 03:21:20;;;;;;;54.13;12.15;;;;;;;6.96;100.00;100102.44;4777742;29;20042;-79
2021/12/31 03:23:47;;;;;;;55.97;12.02;;;;;;;6.99;100.00;100112.75;4809752;29;20042;-79
2021/12/31 03:26:12;;;;;;;60.20;11.25;;;;;;;6.31;100.00;100004.56;4791491;29;20196;-79
2021/12/31 03:28:38;;;;;;;46.20;10.70;;;;;;;6.87;100.00;100098.22;4778759;29;20426;-79
2021/12/31 03:31:03;;;;;;;47.30;11.32;;;;;;;6.94;100.00;100111.66;4806577;29;20458;-79
2021/12/31 03:33:28;;;;;;;56.95;10.98;;;;;;;6.74;100.00;100084.75;4792457;29;20045;-79
2021/12/31 03:35:54;;;;;;;60.90;12.32;;;;;;;6.80;100.00;100090.16;4791456;29;20071;-79
2021/12/31 03:38:19;;;;;;;61.80;11.75;;;;;;;6.98;100.00;100124.44;4792561;29;20031;-79
2021/12/31 03:40:46;;;;;;;60.40;11.00;;;;;;;7.00;100.00;100125.09;4791534;29;20103;-79
2021/12/31 03:43:12;;;;;;;54.22;11.02;;;;;;;6.99;100.00;100126.13;4799426;29;20342;-79
2021/12/31 03:45:37;;;;;;;58.92;11.65;;;;;;;7.02;100.00;100127.59;4810385;29;20045;-79
2021/12/31 03:48:03;;;;;;;50.28;11.38;;;;;;;6.97;100.00;100136.19;4791618;29;20124;-79
2021/12/31 03:50:29;;;;;;;54.55;10.23;;;;;;;6.93;100.00;100137.59;4810405;29;20037;-79
2021/12/31 03:52:54;;;;;;;56.88;11.07;;;;;;;6.78;100.00;100100.19;4790430;29;20470;-78
2021/12/31 03:55:20;;;;;;;49.80;10.48;;;;;;;6.88;100.00;100125.81;4807061;29;20116;-79
2021/12/31 03:57:45;;;;;;;47.67;10.75;;;;;;;6.72;100.00;100108.16;4792217;29;20126;-79
2021/12/31 04:00:11;;;;;;;45.80;9.75;;;;;;;6.85;100.00;100123.50;4790986;29;20053;-79
2021/12/31 04:02:37;;;;;;;53.75;10.18;;;;;;;6.93;100.00;100134.09;4807621;29;20042;-79
2021/12/31 04:05:03;;;;;;;46.55;9.70;;;;;;;6.92;100.00;100137.75;4806044;29;20118;-79
2021/12/31 04:07:29;;;;;;;60.25;10.85;;;;;;;6.81;100.00;100112.38;4796404;29;20030;-79
2021/12/31 04:09:54;;;;;;;68.65;10.88;;;;;;;6.53;100.00;100065.03;4807621;29;20450;-79
2021/12/31 04:12:19;;;;;;;53.47;9.40;;;;;;;6.91;100.00;100120.91;4788075;29;20030;-79
2021/12/31 04:14:45;;;;;;;51.15;9.45;;;;;;;6.69;100.00;100085.34;4792686;29;20099;-78
2021/12/31 04:17:11;;;;;;;52.72;9.23;;;;;;;6.77;100.00;100087.03;4775667;29;20715;-79
2021/12/31 04:19:36;;;;;;;47.13;9.10;;;;;;;6.88;100.00;100107.09;4804257;29;20035;-79
2021/12/31 04:22:02;;;;;;;47.22;7.72;;;;;;;6.89;100.00;100106.06;4791947;29;20415;-79
2021/12/31 04:24:50;;;;;;;42.15;7.93;;;;;;;6.67;100.00;100070.50;4805385;29;20039;-78
2021/12/31 04:27:13;;;;;;;36.83;8.27;;;;;;;6.71;100.00;100077.09;4808170;29;20127;-78
2021/12/31 04:29:39;;;;;;;57.38;9.43;;;;;;;6.87;100.00;100116.13;4806422;29;20030;-79
2021/12/31 04:32:06;;;;;;;54.63;8.73;;;;;;;6.82;100.00;100112.19;4789765;29;20035;-79
2021/12/31 04:34:31;;;;;;;47.80;8.57;;;;;;;6.80;100.00;100116.06;4807575;29;20038;-79
2021/12/31 04:36:57;;;;;;;41.03;9.00;;;;;;;6.85;100.00;100116.31;4774840;29;20031;-79
2021/12/31 04:39:23;;;;;;;60.72;10.25;;;;;;;6.82;100.00;100100.66;4776904;29;20438;-79
2021/12/31 04:41:49;;;;;;;43.67;8.13;;;;;;;6.78;100.00;100102.06;4794464;29;20034;-78
2021/12/31 04:44:15;;;;;;;52.90;10.20;;;;;;;6.63;100.00;100080.75;4806902;29;20370;-79
2021/12/31 04:46:40;;;;;;;56.53;9.95;;;;;;;6.65;100.00;100080.53;4790765;29;20038;-79
2021/12/31 04:49:09;;;;;;;42.20;9.90;;;;;;;6.64;100.00;100085.06;4776693;29;20035;-79
2021/12/31 04:51:35;;;;;;;52.33;10.60;;;;;;;6.72;100.00;100089.44;4790852;29;20427;-79
2021/12/31 04:54:01;;;;;;;48.33;10.93;;;;;;;6.78;100.00;100099.38;4772701;30;20031;-79
2021/12/31 04:56:26;;;;;;;36.17;8.10;;;;;;;6.67;100.00;100083.88;4773514;30;20184;-79
2021/12/31 04:58:52;;;;;;;55.60;9.75;;;;;;;6.64;100.00;100084.25;4777904;29;20091;-79
2021/12/31 05:01:21;;;;;;;39.42;9.35;;;;;;;6.74;100.00;100098.94;4791777;29;20366;-79
2021/12/31 05:03:49;;;;;;;45.50;8.88;;;;;;;6.73;100.00;100085.78;4809174;29;20039;-79
2021/12/31 05:06:15;;;;;;;55.90;9.00;;;;;;;6.74;100.00;100098.94;4794627;29;20049;-79
2021/12/31 05:08:41;;;;;;;41.78;8.77;;;;;;;6.74;100.00;100088.25;4806384;29;20382;-78
2021/12/31 05:11:06;;;;;;;62.00;9.40;;;;;;;6.71;100.00;100082.44;4802067;29;20034;-79
2021/12/31 05:13:32;;;;;;;66.50;10.57;;;;;;;6.68;100.00;100066.78;4825935;29;20175;-79
2021/12/31 05:16:02;;;;;;;65.93;10.00;;;;;;;6.59;100.00;100055.44;4805497;29;20036;-79
2021/12/31 05:18:27;;;;;;;49.90;9.38;;;;;;;6.69;100.00;100077.31;4782930;29;20125;-78
2021/12/31 05:20:53;;;;;;;31.67;8.18;;;;;;;6.68;100.00;100072.13;4790150;29;20125;-78
2021/12/31 05:23:18;;;;;;;42.17;8.95;;;;;;;6.71;100.00;100080.59;4776562;29;20027;-78
2021/12/31 05:25:44;;;;;;;45.33;8.77;;;;;;;6.57;100.00;100058.28;4795499;29;20059;-79
2021/12/31 05:28:09;;;;;;;39.13;8.77;;;;;;;6.66;100.00;100075.03;4794311;29;20134;-79
2021/12/31 05:30:34;;;;;;;52.17;8.73;;;;;;;6.50;100.00;100049.38;4793871;29;20038;-79
2021/12/31 05:33:00;;;;;;;57.92;9.75;;;;;;;6.64;100.00;100069.03;4825393;29;20365;-79
2021/12/31 05:35:25;;;;;;;50.35;9.15;;;;;;;6.64;100.00;100058.34;4792763;29;20046;-79
2021/12/31 05:37:51;;;;;;;70.72;9.50;;;;;;;6.62;100.00;100056.88;4791250;29;20038;-79
2021/12/31 05:40:16;;;;;;;70.90;9.00;;;;;;;6.54;100.00;100028.44;4775159;29;20229;-79
2021/12/31 05:42:42;;;;;;;75.20;9.90;;;;;;;6.64;100.00;100033.44;4776264;29;20046;-79
2021/12/31 05:45:09;;;;;;;83.85;9.88;;;;;;;6.59;100.00;100034.84;4805161;29;20449;-79
2021/12/31 05:47:35;;;;;;;64.65;9.38;;;;;;;6.64;100.00;100036.13;4789249;29;20081;-79
2021/12/31 05:50:04;;;;;;;58.90;8.80;;;;;;;6.61;100.00;100028.50;4790169;29;20347;-79
2021/12/31 05:52:29;;;;;;;61.75;8.60;;;;;;;6.06;100.00;99934.66;4791345;29;20176;-79
2021/12/31 05:54:55;;;;;;;54.25;8.88;;;;;;;6.62;100.00;100022.94;4790287;29;20456;-79
2021/12/31 05:57:20;;;;;;;66.03;8.73;;;;;;;6.67;100.00;100033.06;4789979;29;20049;-78
2021/12/31 05:59:45;;;;;;;44.25;8.60;;;;;;;6.58;100.00;100025.16;4805093;29;20066;-79
2021/12/31 06:02:11;;;;;;;40.30;8.55;;;;;;;6.72;100.00;100042.19;4761675;29;20035;-78
2021/12/31 06:04:37;;;;;;;40.15;9.20;;;;;;;6.73;100.00;100059.03;4805649;29;20041;-79
2021/12/31 06:07:03;;;;;;;39.17;7.78;;;;;;;6.74;100.00;100045.47;4775481;29;20043;-78
2021/12/31 06:09:30;;;;;;;25.13;7.07;;;;;;;6.72;100.00;100041.31;4774211;29;20119;-79
2021/12/31 06:11:57;;;;;;;38.05;8.27;;;;;;;6.65;100.00;100032.41;4786094;29;20038;-79
2021/12/31 06:14:23;;;;;;;60.00;10.27;;;;;;;6.83;100.00;100051.50;4771752;30;20059;-78
2021/12/31 06:16:48;;;;;;;47.13;9.50;;;;;;;6.87;100.00;100050.09;4760719;29;20492;-78
2021/12/31 06:19:14;;;;;;;37.72;8.18;;;;;;;6.89;100.00;100042.72;4787907;29;20577;-79
2021/12/31 06:21:42;;;;;;;57.08;9.40;;;;;;;6.93;100.00;100046.66;4790289;29;20488;-79
2021/12/31 06:24:09;;;;;;;32.05;7.75;;;;;;;6.93;100.00;100041.31;4789426;29;20547;-79
2021/12/31 06:26:35;;;;;;;34.22;8.20;;;;;;;6.97;100.00;100044.41;4805295;29;20065;-79
2021/12/31 06:29:00;;;;;;;38.25;8.63;;;;;;;6.74;100.00;100004.53;4801380;29;20035;-78
2021/12/31 06:31:26;;;;;;;36.47;7.43;;;;;;;6.90;100.00;100025.66;4803451;29;20061;-79
2021/12/31 06:33:52;;;;;;;36.05;8.80;;;;;;;7.06;100.00;100044.09;4802308;29;20039;-79
2021/12/31 06:36:19;;;;;;;46.90;9.80;;;;;;;7.04;100.00;100037.25;4792184;29;20126;-79
2021/12/31 06:38:45;;;;;;;38.55;8.95;;;;;;;6.99;100.00;100029.00;4813062;29;20457;-79
2021/12/31 06:41:10;;;;;;;44.63;9.65;;;;;;;7.06;100.00;100044.09;4808062;29;20030;-79
2021/12/31 06:43:35;;;;;;;39.33;9.57;;;;;;;7.01;100.00;100029.63;4799636;29;20132;-79
2021/12/31 06:46:01;;;;;;;59.05;9.73;;;;;;;7.13;100.00;100038.78;4774459;29;20099;-79
2021/12/31 06:48:26;;;;;;;45.28;10.25;;;;;;;7.05;100.00;100031.72;4808963;29;20031;-79
2021/12/31 06:50:52;;;;;;;40.47;10.07;;;;;;;6.97;100.00;100015.00;4808921;29;20034;-79
2021/12/31 06:53:17;;;;;;;52.53;10.63;;;;;;;7.13;100.00;100038.78;4790805;29;20458;-79
2021/12/31 06:55:43;;;;;;;46.80;10.15;;;;;;;7.23;100.00;100043.78;4788822;29;20039;-79
2021/12/31 06:58:08;;;;;;;38.22;9.82;;;;;;;7.25;100.00;100044.41;4776121;29;20139;-79
2021/12/31 07:00:35;;;;;;;57.13;11.80;;;;;;;7.25;100.00;100034.53;4775105;29;20398;-79
2021/12/31 07:03:18;;;;;;;59.13;12.10;;;;;;;7.23;100.00;100047.28;4775638;29;20039;-79
2021/12/31 07:05:44;;;;;;;72.65;12.85;;;;;;;7.23;100.00;100049.13;4786598;29;20100;-79
2021/12/31 07:08:10;;;;;;;53.20;13.32;;;;;;;7.14;100.00;100029.72;4774890;29;20424;-79
2021/12/31 07:10:36;;;;;;;62.05;14.10;;;;;;;7.12;100.00;100014.88;4787981;29;20477;-79
2021/12/31 07:13:10;;;;;;;64.75;14.63;;;;;;;7.25;100.00;100041.72;4788717;29;20034;-79
2021/12/31 07:15:44;;;;;;;69.88;13.05;;;;;;;7.15;100.00;100030.53;4801385;29;20050;-79
2021/12/31 07:18:10;;;;;;;51.30;13.80;;;;;;;7.25;100.00;100031.88;4799774;29;20031;-78
2021/12/31 07:20:36;;;;;;;57.45;14.43;;;;;;;7.24;100.00;100037.41;4772747;29;20053;-79
2021/12/31 07:23:13;;;;;;;67.30;13.32;;;;;;;7.19;100.00;100019.28;4803138;29;20110;-79
2021/12/31 07:25:39;;;;;;;66.28;13.95;;;;;;;7.21;100.00;100024.41;4799027;29;20051;-79
2021/12/31 07:28:05;;;;;;;56.00;13.70;;;;;;;7.20;100.00;100022.75;4793699;29;20023;-79
2021/12/31 07:30:31;;;;;;;60.40;15.10;;;;;;;7.20;100.00;100015.56;4800082;29;20366;-79
2021/12/31 07:32:56;;;;;;;59.63;14.25;;;;;;;7.17;100.00;100015.13;4767202;30;20054;-79
2021/12/31 07:35:23;;;;;;;58.92;13.73;;;;;;;7.19;100.00;100023.78;4799733;29;20035;-79
2021/12/31 07:37:49;;;;;;;95.07;16.02;;;;;;;7.16;100.00;100032.22;4822928;29;20522;-80
2021/12/31 07:40:24;;;;;;;94.72;15.88;;;;;;;7.11;100.00;100024.75;4813432;29;20421;-80
2021/12/31 07:42:49;;;;;;;58.90;14.00;;;;;;;7.16;100.00;100033.03;4777198;30;20031;-79
2021/12/31 07:45:15;;;;;;;63.50;14.20;;;;;;;7.00;100.00;100001.22;4806676;29;20133;-80
2021/12/31 07:47:40;;;;;;;62.30;15.60;;;;;;;7.17;100.00;100031.19;4794909;29;20466;-78
2021/12/31 07:50:06;;;;;;;102.82;17.77;;;;;;;7.05;100.00;100013.00;4777757;29;20035;-78
2021/12/31 07:52:31;;;;;;;81.43;17.45;;;;;;;7.20;100.00;100038.81;4792160;29;20058;-80
2021/12/31 07:54:58;;;;;;;77.00;15.82;;;;;;;7.22;100.00;100040.28;4790023;29;20043;-80
2021/12/31 07:57:23;;;;;;;84.20;17.67;;;;;;;7.07;100.00;100018.97;4808459;29;20050;-78
2021/12/31 07:59:49;;;;;;;80.05;17.40;;;;;;;7.22;100.00;100034.09;4823873;29;20031;-79
2021/12/31 08:02:14;;;;;;;74.15;17.58;;;;;;;7.00;100.00;100018.09;4790779;29;20121;-80
2021/12/31 08:04:39;;;;;;;64.25;15.15;;;;;;;6.98;100.00;100009.44;4776454;29;20026;-78
2021/12/31 08:07:05;;;;;;;74.60;16.05;;;;;;;7.22;100.00;100039.47;4758684;29;21576;-81
2021/12/31 08:09:30;;;;;;;89.95;17.83;;;;;;;7.19;100.00;100043.34;4796097;29;20031;-80
2021/12/31 08:11:55;;;;;;;80.63;17.05;;;;;;;7.09;100.00;100024.16;4783781;29;20462;-79
2021/12/31 08:14:21;;;;;;;67.93;16.27;;;;;;;7.19;100.00;100039.84;4780256;29;20106;-80
2021/12/31 08:16:46;;;;;;;73.30;15.93;;;;;;;7.24;100.00;100050.78;4778799;29;20042;-80
2021/12/31 08:19:11;;;;;;;58.53;13.48;;;;;;;7.18;100.00;100052.38;4785833;29;20501;-79
2021/12/31 08:21:37;;;;;;;81.28;17.08;;;;;;;7.27;100.00;100053.88;4790522;29;20062;-79
2021/12/31 08:24:02;;;;;;;58.67;13.32;;;;;;;7.13;100.00;100027.25;4792495;29;20131;-78
2021/12/31 08:26:28;;;;;;;62.58;14.93;;;;;;;7.26;100.00;100052.25;4790823;29;20378;-79
2021/12/31 08:28:55;;;;;;;110.22;18.45;;;;;;;7.15;100.00;100033.22;4769741;29;20084;-78
2021/12/31 08:31:20;;;;;;;73.68;15.43;;;;;;;7.25;100.00;100047.06;4810600;29;20022;-79
2021/12/31 08:33:46;;;;;;;68.28;15.80;;;;;;;7.08;100.00;100017.13;4819142;29;20514;-79
2021/12/31 08:36:11;;;;;;;74.90;17.65;;;;;;;7.25;100.00;100052.41;4791993;29;20067;-78
2021/12/31 08:38:37;;;;;;;72.45;16.38;;;;;;;7.24;100.00;100056.13;4761483;29;20039;-79
2021/12/31 08:41:02;;;;;;;80.57;17.88;;;;;;;7.27;100.00;100055.75;4803969;29;20046;-79
2021/12/31 08:43:28;;;;;;;80.05;18.13;;;;;;;7.22;100.00;100064.38;4776342;29;20037;-79
2021/12/31 08:45:54;;;;;;;91.22;18.55;;;;;;;7.20;100.00;100057.56;4782852;29;20035;-79
2021/12/31 08:48:20;;;;;;;79.47;17.65;;;;;;;7.24;100.00;100066.84;4784670;29;20031;-79
2021/12/31 08:50:46;;;;;;;85.18;19.23;;;;;;;7.15;100.00;100058.16;4789496;29;20133;-79
2021/12/31 08:53:12;;;;;;;103.43;19.80;;;;;;;7.14;100.00;100056.47;4792146;29;20034;-79
2021/12/31 08:55:38;;;;;;;116.63;20.85;;;;;;;7.25;100.00;100082.72;4803352;29;20370;-79
2021/12/31 08:58:03;;;;;;;109.22;20.08;;;;;;;6.97;100.00;100034.53;4803798;29;20039;-79
2021/12/31 09:00:29;;;;;;;111.40;19.52;;;;;;;7.26;100.00;100075.50;4758746;29;20042;-78
2021/12/31 09:02:54;;;;;;;82.95;18.45;;;;;;;7.23;100.00;100087.41;4783500;29;20028;-79
2021/12/31 09:05:20;;;;;;;78.18;19.40;;;;;;;7.25;100.00;100089.88;4780021;29;20049;-78
2021/12/31 09:07:45;;;;;;;82.20;19.75;;;;;;;7.24;100.00;100083.72;4791674;29;20053;-80
2021/12/31 09:10:11;;;;;;;107.63;22.23;;;;;;;7.24;100.00;100078.34;4774522;29;20053;-79
2021/12/31 09:12:37;;;;;;;96.32;21.35;;;;;;;7.22;100.00;100071.56;4784219;29;20053;-79
2021/12/31 09:15:06;;;;;;;125.18;23.38;;;;;;;7.22;100.00;100085.78;4786960;29;20126;-79
2021/12/31 09:17:32;;;;;;;128.13;22.45;;;;;;;7.20;100.00;100077.09;4803884;29;20488;-79
2021/12/31 09:19:57;;;;;;;111.97;22.90;;;;;;;7.20;100.00;100066.41;4777116;29;20031;-80
2021/12/31 09:22:23;;;;;;;115.10;23.05;;;;;;;7.16;100.00;100072.34;4758542;30;20051;-79
2021/12/31 09:24:49;;;;;;;98.75;21.80;;;;;;;7.15;100.00;100084.91;4788471;29;20070;-78
2021/12/31 09:27:14;;;;;;;90.45;21.50;;;;;;;7.22;100.00;100101.00;4786143;29;20099;-79
2021/12/31 09:29:39;;;;;;;93.55;21.60;;;;;;;7.17;100.00;100088.19;4773373;30;20050;-78
2021/12/31 09:32:06;;;;;;;104.93;22.83;;;;;;;7.21;100.00;100094.81;4802870;29;20049;-79
2021/12/31 09:34:32;;;;;;;100.65;21.42;;;;;;;7.21;100.00;100096.66;4777760;29;20101;-79
2021/12/31 09:36:57;;;;;;;94.03;21.65;;;;;;;7.21;100.00;100091.31;4771757;29;20047;-79
2021/12/31 09:39:23;;;;;;;150.93;25.23;;;;;;;7.20;100.00;100093.16;4781057;29;20100;-79
2021/12/31 09:41:48;;;;;;;83.07;20.05;;;;;;;7.21;100.00;100100.16;4795789;29;20050;-79
2021/12/31 09:44:15;;;;;;;98.30;22.15;;;;;;;7.15;100.00;100084.91;4797897;29;20035;-79
2021/12/31 09:46:41;;;;;;;134.05;25.20;;;;;;;7.25;100.00;100097.91;4773614;29;20454;-78
2021/12/31 09:49:07;;;;;;;89.88;23.15;;;;;;;7.25;100.00;100089.88;4800383;29;20054;-79
2021/12/31 09:51:33;;;;;;;136.57;24.08;;;;;;;7.27;100.00;100088.66;4784698;29;20030;-79
2021/12/31 09:54:00;;;;;;;104.05;22.75;;;;;;;7.24;100.00;100078.34;4782236;29;20500;-79
2021/12/31 09:56:26;;;;;;;94.00;22.05;;;;;;;7.33;100.00;100092.44;4784680;29;20043;-79
2021/12/31 09:58:52;;;;;;;84.35;20.08;;;;;;;7.29;100.00;100075.13;4800723;29;20072;-79
2021/12/31 10:01:19;;;;;;;92.78;21.00;;;;;;;7.41;100.00;100081.56;4805639;29;20061;-78
2021/12/31 10:03:56;;;;;;;111.65;21.42;;;;;;;7.34;100.00;100063.81;4800799;29;20039;-79
2021/12/31 10:06:22;;;;;;;114.53;22.08;;;;;;;7.45;100.00;100069.47;4789909;29;20039;-79
2021/12/31 10:08:48;;;;;;;121.22;22.20;;;;;;;7.39;100.00;100059.53;4789498;29;20032;-78
2021/12/31 10:11:17;;;;;;;107.90;21.05;;;;;;;7.58;100.00;100092.78;4806160;29;20030;-78
2021/12/31 10:13:56;;;;;;;119.93;22.10;;;;;;;7.57;100.00;100090.31;4798384;29;20131;-78
2021/12/31 10:16:22;;;;;;;84.57;19.88;;;;;;;7.47;100.00;100080.78;4805369;29;20046;-78
2021/12/31 10:18:48;;;;;;;127.82;23.13;;;;;;;7.51;100.00;100082.03;4801951;29;20496;-79
2021/12/31 10:21:19;;;;;;;126.63;23.67;;;;;;;7.58;100.00;100098.13;4799508;29;20027;-78
2021/12/31 10:23:45;;;;;;;98.20;21.48;;;;;;;7.50;100.00;100077.72;4798912;29;20034;-78
2021/12/31 10:26:14;;;;;;;116.15;22.02;;;;;;;7.54;100.00;100078.97;4792200;29;20149;-79
2021/12/31 10:28:58;;;;;;;80.28;20.35;;;;;;;7.49;100.00;100065.34;4826664;29;20348;-79
2021/12/31 10:31:24;;;;;;;100.72;20.95;;;;;;;7.45;100.00;100055.22;4823733;29;20041;-79
2021/12/31 10:33:50;;;;;;;101.75;21.65;;;;;;;7.39;100.00;100053.34;4821997;29;20034;-78
2021/12/31 10:36:35;;;;;;;92.25;21.13;;;;;;;7.49;100.00;100064.53;4817120;29;20052;-79
2021/12/31 10:39:14;;;;;;;139.32;22.88;;;;;;;7.58;100.00;100074.03;4807274;29;20037;-79
2021/12/31 10:41:39;;;;;;;64.43;17.70;;;;;;;7.58;100.00;100067.84;4823560;29;20175;-79
2021/12/31 10:44:05;;;;;;;94.30;20.45;;;;;;;7.58;100.00;100076.72;4766276;29;20038;-78
2021/12/31 10:46:30;;;;;;;95.25;20.55;;;;;;;7.57;100.00;100084.97;4778473;29;20106;-78
2021/12/31 10:48:58;;;;;;;89.97;20.30;;;;;;;7.59;100.00;100075.72;4807381;29;20038;-79
2021/12/31 10:51:38;;;;;;;56.13;17.83;;;;;;;7.55;100.00;100074.47;4808199;29;20034;-78
2021/12/31 10:54:27;;;;;;;62.22;17.98;;;;;;;7.59;100.00;100086.41;4806635;29;20478;-78
2021/12/31 10:56:52;;;;;;;57.95;15.98;;;;;;;7.54;100.00;100078.13;4801549;29;20030;-79
2021/12/31 10:59:18;;;;;;;47.45;16.60;;;;;;;7.48;100.00;100085.13;4824556;29;20371;-78
2021/12/31 11:01:43;;;;;;;62.50;17.65;;;;;;;7.53;100.00;100082.66;4806667;29;20058;-78
2021/12/31 11:04:10;;;;;;;56.53;18.40;;;;;;;7.52;100.00;100080.19;4806583;29;20125;-78
2021/12/31 11:06:37;;;;;;;56.80;17.80;;;;;;;7.51;100.00;100089.25;4792575;29;20109;-78
2021/12/31 11:09:06;;;;;;;50.28;17.60;;;;;;;7.60;100.00;100090.75;4793837;29;20421;-78